sensor_id;sensor_type;location;lat;lon;timestamp;temperature;humidity
20233;DHT22;37438;55.674;13.074;2022-08-19T00:02:00;20.20;99.90
20233;DHT22;37438;55.674;13.074;2022-08-19T00:05:05;20.20;99.90
20233;DHT22;37438;55.674;13.074;2022-08-19T00:08:10;20.20;99.90
20233;DHT22;37438;55.674;13.074;2022-08-19T00:11:14;20.10;99.90
20233;DHT22;37438;55.674;13.074;2022-08-19T00:14:30;20.10;99.90
20233;DHT22;37438;55.674;13.074;2022-08-19T00:17:36;20.10;99.90
20233;DHT22;37438;55.674;13.074;2022-08-19T00:20:44;20.10;99.90
20233;DHT22;37438;55.674;13.074;2022-08-19T00:23:49;20.10;99.90
20233;DHT22;37438;55.674;13.074;2022-08-19T00:26:55;20.00;99.90
20233;DHT22;37438;55.674;13.074;2022-08-19T00:30:21;20.00;99.90
20233;DHT22;37438;55.674;13.074;2022-08-19T00:33:25;20.00;99.90
20233;DHT22;37438;55.674;13.074;2022-08-19T00:36:34;20.00;99.90
20233;DHT22;37438;55.674;13.074;2022-08-19T00:39:39;20.00;99.90
20233;DHT22;37438;55.674;13.074;2022-08-19T00:42:43;20.10;99.90
20233;DHT22;37438;55.674;13.074;2022-08-19T00:45:49;20.10;99.90
20233;DHT22;37438;55.674;13.074;2022-08-19T00:48:55;20.10;99.90
20233;DHT22;37438;55.674;13.074;2022-08-19T00:52:11;20.10;99.90
20233;DHT22;37438;55.674;13.074;2022-08-19T00:55:25;20.10;99.90
20233;DHT22;37438;55.674;13.074;2022-08-19T00:58:33;20.10;99.90
20233;DHT22;37438;55.674;13.074;2022-08-19T01:01:41;20.10;99.90
20233;DHT22;37438;55.674;13.074;2022-08-19T01:04:46;20.10;99.90
20233;DHT22;37438;55.674;13.074;2022-08-19T01:07:51;20.00;99.90
20233;DHT22;37438;55.674;13.074;2022-08-19T01:10:58;20.00;99.90
20233;DHT22;37438;55.674;13.074;2022-08-19T01:14:04;20.00;99.90
20233;DHT22;37438;55.674;13.074;2022-08-19T01:17:11;20.00;99.90
20233;DHT22;37438;55.674;13.074;2022-08-19T01:20:19;20.00;99.90
20233;DHT22;37438;55.674;13.074;2022-08-19T01:23:24;19.90;99.90
20233;DHT22;37438;55.674;13.074;2022-08-19T01:26:47;19.90;99.90
20233;DHT22;37438;55.674;13.074;2022-08-19T01:29:52;19.90;99.90
20233;DHT22;37438;55.674;13.074;2022-08-19T01:32:56;19.90;99.90
20233;DHT22;37438;55.674;13.074;2022-08-19T01:36:14;19.80;99.90
20233;DHT22;37438;55.674;13.074;2022-08-19T01:39:22;19.70;99.90
20233;DHT22;37438;55.674;13.074;2022-08-19T01:42:27;19.60;99.90
20233;DHT22;37438;55.674;13.074;2022-08-19T01:45:35;19.60;99.90
20233;DHT22;37438;55.674;13.074;2022-08-19T01:48:41;19.60;99.90
20233;DHT22;37438;55.674;13.074;2022-08-19T01:51:46;19.60;99.90
20233;DHT22;37438;55.674;13.074;2022-08-19T01:54:50;19.50;99.90
20233;DHT22;37438;55.674;13.074;2022-08-19T01:57:58;19.50;99.90
20233;DHT22;37438;55.674;13.074;2022-08-19T02:01:04;19.50;99.90
20233;DHT22;37438;55.674;13.074;2022-08-19T02:04:09;19.50;99.90
20233;DHT22;37438;55.674;13.074;2022-08-19T02:07:13;19.50;99.90
20233;DHT22;37438;55.674;13.074;2022-08-19T02:10:20;19.40;99.90
20233;DHT22;37438;55.674;13.074;2022-08-19T02:13:26;19.40;99.90
20233;DHT22;37438;55.674;13.074;2022-08-19T02:16:31;19.40;99.90
20233;DHT22;37438;55.674;13.074;2022-08-19T02:19:36;19.40;99.90
20233;DHT22;37438;55.674;13.074;2022-08-19T02:22:44;19.30;99.90
20233;DHT22;37438;55.674;13.074;2022-08-19T02:25:51;19.30;99.90
20233;DHT22;37438;55.674;13.074;2022-08-19T02:28:56;19.30;99.90
20233;DHT22;37438;55.674;13.074;2022-08-19T02:32:00;19.20;99.90
20233;DHT22;37438;55.674;13.074;2022-08-19T02:35:05;19.20;99.90
20233;DHT22;37438;55.674;13.074;2022-08-19T02:38:16;19.20;99.90
20233;DHT22;37438;55.674;13.074;2022-08-19T02:41:32;19.20;99.90
20233;DHT22;37438;55.674;13.074;2022-08-19T02:44:37;19.10;99.90
20233;DHT22;37438;55.674;13.074;2022-08-19T02:47:41;19.10;99.90
20233;DHT22;37438;55.674;13.074;2022-08-19T02:50:47;19.20;99.90
20233;DHT22;37438;55.674;13.074;2022-08-19T02:53:56;19.10;99.90
20233;DHT22;37438;55.674;13.074;2022-08-19T02:57:01;19.10;99.90
20233;DHT22;37438;55.674;13.074;2022-08-19T03:00:06;19.10;99.90
20233;DHT22;37438;55.674;13.074;2022-08-19T03:03:12;19.10;99.90
20233;DHT22;37438;55.674;13.074;2022-08-19T03:06:17;19.10;99.90
20233;DHT22;37438;55.674;13.074;2022-08-19T03:09:22;19.10;99.90
20233;DHT22;37438;55.674;13.074;2022-08-19T03:12:26;19.00;99.90
20233;DHT22;37438;55.674;13.074;2022-08-19T03:15:30;19.00;99.90
20233;DHT22;37438;55.674;13.074;2022-08-19T03:18:34;18.90;99.90
20233;DHT22;37438;55.674;13.074;2022-08-19T03:21:40;18.90;99.90
20233;DHT22;37438;55.674;13.074;2022-08-19T03:24:46;18.80;99.90
20233;DHT22;37438;55.674;13.074;2022-08-19T03:27:51;18.90;99.90
20233;DHT22;37438;55.674;13.074;2022-08-19T03:31:02;18.80;99.90
20233;DHT22;37438;55.674;13.074;2022-08-19T03:34:29;18.80;99.90
20233;DHT22;37438;55.674;13.074;2022-08-19T03:37:34;18.80;99.90
20233;DHT22;37438;55.674;13.074;2022-08-19T03:40:39;18.80;99.90
20233;DHT22;37438;55.674;13.074;2022-08-19T03:43:45;18.80;99.90
20233;DHT22;37438;55.674;13.074;2022-08-19T03:46:53;18.80;99.90
20233;DHT22;37438;55.674;13.074;2022-08-19T03:49:59;18.70;99.90
20233;DHT22;37438;55.674;13.074;2022-08-19T03:53:03;18.80;99.90
20233;DHT22;37438;55.674;13.074;2022-08-19T03:56:09;18.80;99.90
20233;DHT22;37438;55.674;13.074;2022-08-19T03:59:18;18.80;99.90
20233;DHT22;37438;55.674;13.074;2022-08-19T04:02:24;18.70;99.90
20233;DHT22;37438;55.674;13.074;2022-08-19T04:05:29;18.70;99.90
20233;DHT22;37438;55.674;13.074;2022-08-19T04:08:33;18.70;99.90
20233;DHT22;37438;55.674;13.074;2022-08-19T04:11:50;18.70;99.90
20233;DHT22;37438;55.674;13.074;2022-08-19T04:14:57;18.70;99.90
20233;DHT22;37438;55.674;13.074;2022-08-19T04:18:02;18.70;99.90
20233;DHT22;37438;55.674;13.074;2022-08-19T04:21:07;18.70;99.90
20233;DHT22;37438;55.674;13.074;2022-08-19T04:24:13;18.60;99.90
20233;DHT22;37438;55.674;13.074;2022-08-19T04:27:18;18.60;99.90
20233;DHT22;37438;55.674;13.074;2022-08-19T04:30:22;18.70;99.90
20233;DHT22;37438;55.674;13.074;2022-08-19T04:33:27;18.70;99.90
20233;DHT22;37438;55.674;13.074;2022-08-19T04:36:35;18.80;99.90
20233;DHT22;37438;55.674;13.074;2022-08-19T04:39:40;18.90;99.90
20233;DHT22;37438;55.674;13.074;2022-08-19T04:43:05;18.90;99.90
20233;DHT22;37438;55.674;13.074;2022-08-19T04:46:11;19.10;99.90
20233;DHT22;37438;55.674;13.074;2022-08-19T04:49:37;19.00;99.90
20233;DHT22;37438;55.674;13.074;2022-08-19T04:52:41;19.00;99.90
20233;DHT22;37438;55.674;13.074;2022-08-19T04:55:47;18.90;99.90
20233;DHT22;37438;55.674;13.074;2022-08-19T04:58:52;19.00;99.90
20233;DHT22;37438;55.674;13.074;2022-08-19T05:01:57;19.00;99.90
20233;DHT22;37438;55.674;13.074;2022-08-19T05:05:02;19.10;99.90
20233;DHT22;37438;55.674;13.074;2022-08-19T05:08:07;19.10;99.90
20233;DHT22;37438;55.674;13.074;2022-08-19T05:11:31;19.10;99.90
20233;DHT22;37438;55.674;13.074;2022-08-19T05:14:36;19.20;99.90
20233;DHT22;37438;55.674;13.074;2022-08-19T05:17:40;19.20;99.90
20233;DHT22;37438;55.674;13.074;2022-08-19T05:21:10;19.20;99.90
20233;DHT22;37438;55.674;13.074;2022-08-19T05:24:33;19.20;99.90
20233;DHT22;37438;55.674;13.074;2022-08-19T05:27:39;19.30;99.90
20233;DHT22;37438;55.674;13.074;2022-08-19T05:30:44;19.50;99.90
20233;DHT22;37438;55.674;13.074;2022-08-19T05:33:50;19.50;99.90
20233;DHT22;37438;55.674;13.074;2022-08-19T05:36:59;19.60;99.90
20233;DHT22;37438;55.674;13.074;2022-08-19T05:40:04;19.80;99.90
20233;DHT22;37438;55.674;13.074;2022-08-19T05:43:08;20.00;99.90
20233;DHT22;37438;55.674;13.074;2022-08-19T05:46:19;20.10;99.90
20233;DHT22;37438;55.674;13.074;2022-08-19T05:49:33;20.20;99.90
20233;DHT22;37438;55.674;13.074;2022-08-19T05:52:38;20.30;99.90
20233;DHT22;37438;55.674;13.074;2022-08-19T05:55:49;20.30;99.90
20233;DHT22;37438;55.674;13.074;2022-08-19T05:58:53;20.30;99.90
20233;DHT22;37438;55.674;13.074;2022-08-19T06:01:58;20.30;99.90
20233;DHT22;37438;55.674;13.074;2022-08-19T06:05:05;20.40;99.90
20233;DHT22;37438;55.674;13.074;2022-08-19T06:08:13;20.50;99.90
20233;DHT22;37438;55.674;13.074;2022-08-19T06:11:22;20.60;99.90
20233;DHT22;37438;55.674;13.074;2022-08-19T06:14:31;20.50;99.90
20233;DHT22;37438;55.674;13.074;2022-08-19T06:17:36;20.60;99.90
20233;DHT22;37438;55.674;13.074;2022-08-19T06:20:41;20.70;99.90
20233;DHT22;37438;55.674;13.074;2022-08-19T06:23:59;20.70;99.90
20233;DHT22;37438;55.674;13.074;2022-08-19T06:27:04;20.80;99.90
20233;DHT22;37438;55.674;13.074;2022-08-19T06:30:10;21.00;99.90
20233;DHT22;37438;55.674;13.074;2022-08-19T06:33:15;21.00;99.90
20233;DHT22;37438;55.674;13.074;2022-08-19T06:36:27;20.90;99.90
20233;DHT22;37438;55.674;13.074;2022-08-19T06:39:37;20.90;99.90
20233;DHT22;37438;55.674;13.074;2022-08-19T06:42:42;21.00;99.90
20233;DHT22;37438;55.674;13.074;2022-08-19T06:45:58;21.20;99.90
20233;DHT22;37438;55.674;13.074;2022-08-19T06:49:04;21.20;99.90
20233;DHT22;37438;55.674;13.074;2022-08-19T06:52:10;21.20;99.90
20233;DHT22;37438;55.674;13.074;2022-08-19T06:55:18;21.30;99.90
20233;DHT22;37438;55.674;13.074;2022-08-19T06:58:22;21.50;99.90
20233;DHT22;37438;55.674;13.074;2022-08-19T07:01:27;21.60;99.90
20233;DHT22;37438;55.674;13.074;2022-08-19T07:04:33;21.70;99.90
20233;DHT22;37438;55.674;13.074;2022-08-19T07:07:38;21.80;99.90
20233;DHT22;37438;55.674;13.074;2022-08-19T07:10:46;21.70;99.90
20233;DHT22;37438;55.674;13.074;2022-08-19T07:13:51;21.60;99.90
20233;DHT22;37438;55.674;13.074;2022-08-19T07:16:57;21.50;99.90
20233;DHT22;37438;55.674;13.074;2022-08-19T07:20:02;21.50;99.90
20233;DHT22;37438;55.674;13.074;2022-08-19T07:23:10;21.40;99.90
20233;DHT22;37438;55.674;13.074;2022-08-19T07:26:29;21.50;99.90
20233;DHT22;37438;55.674;13.074;2022-08-19T07:29:36;21.60;99.90
20233;DHT22;37438;55.674;13.074;2022-08-19T07:32:41;21.80;99.90
20233;DHT22;37438;55.674;13.074;2022-08-19T07:35:47;21.90;99.90
20233;DHT22;37438;55.674;13.074;2022-08-19T07:38:52;22.10;99.90
20233;DHT22;37438;55.674;13.074;2022-08-19T07:42:01;22.10;99.90
20233;DHT22;37438;55.674;13.074;2022-08-19T07:45:07;22.20;99.90
20233;DHT22;37438;55.674;13.074;2022-08-19T07:48:12;22.30;99.90
20233;DHT22;37438;55.674;13.074;2022-08-19T07:51:19;22.20;99.90
20233;DHT22;37438;55.674;13.074;2022-08-19T07:54:40;22.30;99.90
20233;DHT22;37438;55.674;13.074;2022-08-19T07:57:45;22.40;99.90
20233;DHT22;37438;55.674;13.074;2022-08-19T08:00:50;22.40;99.90
20233;DHT22;37438;55.674;13.074;2022-08-19T08:03:56;22.50;99.90
20233;DHT22;37438;55.674;13.074;2022-08-19T08:07:20;22.50;99.90
20233;DHT22;37438;55.674;13.074;2022-08-19T08:10:50;22.50;99.90
20233;DHT22;37438;55.674;13.074;2022-08-19T08:13:57;22.50;99.90
20233;DHT22;37438;55.674;13.074;2022-08-19T08:17:08;22.70;99.90
20233;DHT22;37438;55.674;13.074;2022-08-19T08:20:14;22.80;99.90
20233;DHT22;37438;55.674;13.074;2022-08-19T08:23:18;23.00;99.90
20233;DHT22;37438;55.674;13.074;2022-08-19T08:26:30;23.10;99.90
20233;DHT22;37438;55.674;13.074;2022-08-19T08:29:37;23.20;99.90
20233;DHT22;37438;55.674;13.074;2022-08-19T08:32:42;23.10;99.90
20233;DHT22;37438;55.674;13.074;2022-08-19T08:35:49;23.20;99.90
20233;DHT22;37438;55.674;13.074;2022-08-19T08:38:54;23.20;99.90
20233;DHT22;37438;55.674;13.074;2022-08-19T08:42:14;23.40;99.90
20233;DHT22;37438;55.674;13.074;2022-08-19T08:45:22;23.10;99.90
20233;DHT22;37438;55.674;13.074;2022-08-19T08:52:11;23.00;99.90
20233;DHT22;37438;55.674;13.074;2022-08-19T08:55:24;23.10;99.90
20233;DHT22;37438;55.674;13.074;2022-08-19T08:58:39;23.20;99.90
20233;DHT22;37438;55.674;13.074;2022-08-19T09:01:46;23.20;99.90
20233;DHT22;37438;55.674;13.074;2022-08-19T09:04:51;23.20;99.90
20233;DHT22;37438;55.674;13.074;2022-08-19T09:08:07;23.30;99.90
20233;DHT22;37438;55.674;13.074;2022-08-19T09:17:59;23.80;99.90
20233;DHT22;37438;55.674;13.074;2022-08-19T09:21:05;24.20;99.90
20233;DHT22;37438;55.674;13.074;2022-08-19T09:24:12;24.40;99.90
20233;DHT22;37438;55.674;13.074;2022-08-19T09:27:17;24.60;99.90
20233;DHT22;37438;55.674;13.074;2022-08-19T09:30:26;25.40;99.90
20233;DHT22;37438;55.674;13.074;2022-08-19T09:33:34;25.90;99.90
20233;DHT22;37438;55.674;13.074;2022-08-19T09:36:38;25.90;99.90
20233;DHT22;37438;55.674;13.074;2022-08-19T09:39:43;25.70;99.90
20233;DHT22;37438;55.674;13.074;2022-08-19T09:42:48;25.40;99.90
20233;DHT22;37438;55.674;13.074;2022-08-19T09:45:55;25.40;99.90
20233;DHT22;37438;55.674;13.074;2022-08-19T09:49:00;25.40;99.90
20233;DHT22;37438;55.674;13.074;2022-08-19T09:52:10;25.20;99.90
20233;DHT22;37438;55.674;13.074;2022-08-19T09:55:17;25.40;99.90
20233;DHT22;37438;55.674;13.074;2022-08-19T09:58:21;25.20;99.90
20233;DHT22;37438;55.674;13.074;2022-08-19T10:01:31;25.00;99.90
20233;DHT22;37438;55.674;13.074;2022-08-19T10:04:36;25.00;99.90
20233;DHT22;37438;55.674;13.074;2022-08-19T10:07:59;25.20;99.90
20233;DHT22;37438;55.674;13.074;2022-08-19T10:11:08;25.40;99.90
20233;DHT22;37438;55.674;13.074;2022-08-19T10:14:34;25.30;99.90
20233;DHT22;37438;55.674;13.074;2022-08-19T10:17:39;25.20;99.90
20233;DHT22;37438;55.674;13.074;2022-08-19T10:20:51;25.20;99.90
20233;DHT22;37438;55.674;13.074;2022-08-19T10:23:59;25.20;99.90
20233;DHT22;37438;55.674;13.074;2022-08-19T10:27:08;25.30;99.90
20233;DHT22;37438;55.674;13.074;2022-08-19T10:30:14;25.30;99.90
20233;DHT22;37438;55.674;13.074;2022-08-19T10:33:19;25.50;99.90
20233;DHT22;37438;55.674;13.074;2022-08-19T10:36:43;25.70;99.90
20233;DHT22;37438;55.674;13.074;2022-08-19T10:39:59;25.70;99.90
20233;DHT22;37438;55.674;13.074;2022-08-19T10:43:05;25.80;99.90
20233;DHT22;37438;55.674;13.074;2022-08-19T10:46:13;25.70;99.90
20233;DHT22;37438;55.674;13.074;2022-08-19T10:49:20;25.60;99.90
20233;DHT22;37438;55.674;13.074;2022-08-19T10:52:25;25.50;99.90
20233;DHT22;37438;55.674;13.074;2022-08-19T10:55:44;25.40;99.90
20233;DHT22;37438;55.674;13.074;2022-08-19T10:59:08;25.70;99.90
20233;DHT22;37438;55.674;13.074;2022-08-19T11:02:13;25.40;99.90
20233;DHT22;37438;55.674;13.074;2022-08-19T11:05:18;25.30;99.90
20233;DHT22;37438;55.674;13.074;2022-08-19T11:08:23;25.20;99.90
20233;DHT22;37438;55.674;13.074;2022-08-19T11:11:28;24.80;99.90
20233;DHT22;37438;55.674;13.074;2022-08-19T11:14:34;24.50;99.90
20233;DHT22;37438;55.674;13.074;2022-08-19T11:17:39;24.30;99.90
20233;DHT22;37438;55.674;13.074;2022-08-19T11:20:47;23.90;99.90
20233;DHT22;37438;55.674;13.074;2022-08-19T11:23:55;23.70;99.90
20233;DHT22;37438;55.674;13.074;2022-08-19T11:27:04;23.60;99.90
20233;DHT22;37438;55.674;13.074;2022-08-19T11:30:11;23.50;99.90
20233;DHT22;37438;55.674;13.074;2022-08-19T11:33:16;23.70;99.90
20233;DHT22;37438;55.674;13.074;2022-08-19T11:36:21;23.60;99.90
20233;DHT22;37438;55.674;13.074;2022-08-19T11:39:28;23.50;99.90
20233;DHT22;37438;55.674;13.074;2022-08-19T11:42:33;23.50;99.90
20233;DHT22;37438;55.674;13.074;2022-08-19T11:45:56;23.20;99.90
20233;DHT22;37438;55.674;13.074;2022-08-19T11:49:03;23.10;99.90
20233;DHT22;37438;55.674;13.074;2022-08-19T11:52:13;23.10;99.90
20233;DHT22;37438;55.674;13.074;2022-08-19T11:55:18;23.00;99.90
20233;DHT22;37438;55.674;13.074;2022-08-19T11:58:24;22.80;99.90
20233;DHT22;37438;55.674;13.074;2022-08-19T12:01:29;22.50;99.90
20233;DHT22;37438;55.674;13.074;2022-08-19T12:04:34;22.40;99.90
20233;DHT22;37438;55.674;13.074;2022-08-19T12:07:40;22.60;99.90
20233;DHT22;37438;55.674;13.074;2022-08-19T12:10:45;22.60;99.90
20233;DHT22;37438;55.674;13.074;2022-08-19T12:13:50;22.60;99.90
20233;DHT22;37438;55.674;13.074;2022-08-19T12:16:55;22.90;99.90
20233;DHT22;37438;55.674;13.074;2022-08-19T12:20:00;23.00;99.90
20233;DHT22;37438;55.674;13.074;2022-08-19T12:23:05;23.10;99.90
20233;DHT22;37438;55.674;13.074;2022-08-19T12:26:11;23.30;99.90
20233;DHT22;37438;55.674;13.074;2022-08-19T12:29:16;23.40;99.90
20233;DHT22;37438;55.674;13.074;2022-08-19T12:32:27;23.40;99.90
20233;DHT22;37438;55.674;13.074;2022-08-19T12:35:31;23.40;99.90
20233;DHT22;37438;55.674;13.074;2022-08-19T12:38:37;23.30;99.90
20233;DHT22;37438;55.674;13.074;2022-08-19T12:41:41;23.20;99.90
20233;DHT22;37438;55.674;13.074;2022-08-19T12:44:58;23.00;99.90
20233;DHT22;37438;55.674;13.074;2022-08-19T12:48:03;22.90;99.90
20233;DHT22;37438;55.674;13.074;2022-08-19T12:51:28;22.90;99.90
20233;DHT22;37438;55.674;13.074;2022-08-19T12:54:32;22.80;99.90
20233;DHT22;37438;55.674;13.074;2022-08-19T12:57:37;22.60;99.90
20233;DHT22;37438;55.674;13.074;2022-08-19T13:00:42;22.80;99.90
20233;DHT22;37438;55.674;13.074;2022-08-19T13:03:46;22.90;99.90
20233;DHT22;37438;55.674;13.074;2022-08-19T13:06:54;22.80;99.90
20233;DHT22;37438;55.674;13.074;2022-08-19T13:09:58;22.60;99.90
20233;DHT22;37438;55.674;13.074;2022-08-19T13:13:05;22.70;99.90
20233;DHT22;37438;55.674;13.074;2022-08-19T13:16:11;22.70;99.90
20233;DHT22;37438;55.674;13.074;2022-08-19T13:19:16;22.80;99.90
20233;DHT22;37438;55.674;13.074;2022-08-19T13:22:24;22.90;99.90
20233;DHT22;37438;55.674;13.074;2022-08-19T13:25:30;22.90;99.90
20233;DHT22;37438;55.674;13.074;2022-08-19T13:28:34;23.00;99.90
20233;DHT22;37438;55.674;13.074;2022-08-19T13:31:58;23.00;99.90
20233;DHT22;37438;55.674;13.074;2022-08-19T13:35:21;22.80;99.90
20233;DHT22;37438;55.674;13.074;2022-08-19T13:38:27;22.80;99.90
20233;DHT22;37438;55.674;13.074;2022-08-19T13:41:32;22.50;99.90
20233;DHT22;37438;55.674;13.074;2022-08-19T13:44:38;22.50;99.90
20233;DHT22;37438;55.674;13.074;2022-08-19T13:47:42;22.40;99.90
20233;DHT22;37438;55.674;13.074;2022-08-19T13:50:49;22.40;99.90
20233;DHT22;37438;55.674;13.074;2022-08-19T13:53:53;22.30;99.90
20233;DHT22;37438;55.674;13.074;2022-08-19T13:56:59;22.20;99.90
20233;DHT22;37438;55.674;13.074;2022-08-19T14:00:08;22.00;99.90
20233;DHT22;37438;55.674;13.074;2022-08-19T14:03:16;22.20;99.90
20233;DHT22;37438;55.674;13.074;2022-08-19T14:06:21;22.30;99.90
20233;DHT22;37438;55.674;13.074;2022-08-19T14:09:26;22.10;99.90
20233;DHT22;37438;55.674;13.074;2022-08-19T14:12:31;22.00;99.90
20233;DHT22;37438;55.674;13.074;2022-08-19T14:15:37;21.90;99.90
20233;DHT22;37438;55.674;13.074;2022-08-19T14:18:43;22.10;99.90
20233;DHT22;37438;55.674;13.074;2022-08-19T14:21:47;22.00;99.90
20233;DHT22;37438;55.674;13.074;2022-08-19T14:24:52;22.00;99.90
20233;DHT22;37438;55.674;13.074;2022-08-19T14:27:57;22.10;99.90
20233;DHT22;37438;55.674;13.074;2022-08-19T14:31:02;22.00;99.90
20233;DHT22;37438;55.674;13.074;2022-08-19T14:34:06;22.00;99.90
20233;DHT22;37438;55.674;13.074;2022-08-19T14:37:12;22.10;99.90
20233;DHT22;37438;55.674;13.074;2022-08-19T14:40:19;22.10;99.90
20233;DHT22;37438;55.674;13.074;2022-08-19T14:43:26;22.10;99.90
20233;DHT22;37438;55.674;13.074;2022-08-19T14:46:30;22.20;99.90
20233;DHT22;37438;55.674;13.074;2022-08-19T14:49:36;22.20;99.90
20233;DHT22;37438;55.674;13.074;2022-08-19T14:52:49;22.20;99.90
20233;DHT22;37438;55.674;13.074;2022-08-19T14:55:54;22.20;99.90
20233;DHT22;37438;55.674;13.074;2022-08-19T14:58:58;22.20;99.90
20233;DHT22;37438;55.674;13.074;2022-08-19T15:02:05;22.40;99.90
20233;DHT22;37438;55.674;13.074;2022-08-19T15:05:30;22.50;99.90
20233;DHT22;37438;55.674;13.074;2022-08-19T15:08:36;22.50;99.90
20233;DHT22;37438;55.674;13.074;2022-08-19T15:11:43;22.40;99.90
20233;DHT22;37438;55.674;13.074;2022-08-19T15:14:47;22.40;99.90
20233;DHT22;37438;55.674;13.074;2022-08-19T15:17:57;22.20;99.90
20233;DHT22;37438;55.674;13.074;2022-08-19T15:21:06;22.20;99.90
20233;DHT22;37438;55.674;13.074;2022-08-19T15:24:11;22.20;99.90
20233;DHT22;37438;55.674;13.074;2022-08-19T15:27:15;22.00;99.90
20233;DHT22;37438;55.674;13.074;2022-08-19T15:30:23;22.00;99.90
20233;DHT22;37438;55.674;13.074;2022-08-19T15:33:31;21.90;99.90
20233;DHT22;37438;55.674;13.074;2022-08-19T15:36:36;21.90;99.90
20233;DHT22;37438;55.674;13.074;2022-08-19T15:39:41;22.00;99.90
20233;DHT22;37438;55.674;13.074;2022-08-19T15:42:46;22.20;99.90
20233;DHT22;37438;55.674;13.074;2022-08-19T15:45:52;22.30;99.90
20233;DHT22;37438;55.674;13.074;2022-08-19T15:48:58;22.10;99.90
20233;DHT22;37438;55.674;13.074;2022-08-19T15:52:03;22.10;99.90
20233;DHT22;37438;55.674;13.074;2022-08-19T15:55:11;22.10;99.90
20233;DHT22;37438;55.674;13.074;2022-08-19T15:58:35;22.30;99.90
20233;DHT22;37438;55.674;13.074;2022-08-19T16:01:58;22.20;99.90
20233;DHT22;37438;55.674;13.074;2022-08-19T16:05:25;22.20;99.90
20233;DHT22;37438;55.674;13.074;2022-08-19T16:08:48;22.30;99.90
20233;DHT22;37438;55.674;13.074;2022-08-19T16:11:55;22.30;99.90
20233;DHT22;37438;55.674;13.074;2022-08-19T16:15:04;22.00;99.90
20233;DHT22;37438;55.674;13.074;2022-08-19T16:18:09;22.10;99.90
20233;DHT22;37438;55.674;13.074;2022-08-19T16:21:14;22.10;99.90
20233;DHT22;37438;55.674;13.074;2022-08-19T16:24:22;22.30;99.90
20233;DHT22;37438;55.674;13.074;2022-08-19T16:27:28;22.40;99.90
20233;DHT22;37438;55.674;13.074;2022-08-19T16:30:33;22.40;99.90
20233;DHT22;37438;55.674;13.074;2022-08-19T16:33:38;22.30;99.90
20233;DHT22;37438;55.674;13.074;2022-08-19T16:36:43;22.20;99.90
20233;DHT22;37438;55.674;13.074;2022-08-19T16:39:48;22.20;99.90
20233;DHT22;37438;55.674;13.074;2022-08-19T16:42:52;22.20;99.90
20233;DHT22;37438;55.674;13.074;2022-08-19T16:45:56;22.30;99.90
20233;DHT22;37438;55.674;13.074;2022-08-19T16:49:02;22.20;99.90
20233;DHT22;37438;55.674;13.074;2022-08-19T16:52:07;22.20;99.90
20233;DHT22;37438;55.674;13.074;2022-08-19T16:55:13;22.20;99.90
20233;DHT22;37438;55.674;13.074;2022-08-19T16:58:18;22.20;99.90
20233;DHT22;37438;55.674;13.074;2022-08-19T17:01:31;22.20;99.90
20233;DHT22;37438;55.674;13.074;2022-08-19T17:04:35;22.00;99.90
20233;DHT22;37438;55.674;13.074;2022-08-19T17:07:39;22.10;99.90
20233;DHT22;37438;55.674;13.074;2022-08-19T17:10:44;22.10;99.90
20233;DHT22;37438;55.674;13.074;2022-08-19T17:14:09;22.00;99.90
20233;DHT22;37438;55.674;13.074;2022-08-19T17:17:14;22.00;99.90
20233;DHT22;37438;55.674;13.074;2022-08-19T17:20:20;22.00;99.90
20233;DHT22;37438;55.674;13.074;2022-08-19T17:23:24;22.00;99.90
20233;DHT22;37438;55.674;13.074;2022-08-19T17:26:46;22.00;99.90
20233;DHT22;37438;55.674;13.074;2022-08-19T17:29:51;22.00;99.90
20233;DHT22;37438;55.674;13.074;2022-08-19T17:32:56;21.80;99.90
20233;DHT22;37438;55.674;13.074;2022-08-19T17:36:01;21.80;99.90
20233;DHT22;37438;55.674;13.074;2022-08-19T17:39:08;21.90;99.90
20233;DHT22;37438;55.674;13.074;2022-08-19T17:42:12;21.90;99.90
20233;DHT22;37438;55.674;13.074;2022-08-19T17:45:16;21.90;99.90
20233;DHT22;37438;55.674;13.074;2022-08-19T17:48:21;21.90;99.90
20233;DHT22;37438;55.674;13.074;2022-08-19T17:54:39;21.80;99.90
20233;DHT22;37438;55.674;13.074;2022-08-19T17:57:43;21.70;99.90
20233;DHT22;37438;55.674;13.074;2022-08-19T18:00:50;21.70;99.90
20233;DHT22;37438;55.674;13.074;2022-08-19T18:03:57;21.70;99.90
20233;DHT22;37438;55.674;13.074;2022-08-19T18:07:02;21.50;99.90
20233;DHT22;37438;55.674;13.074;2022-08-19T18:10:07;21.50;99.90
20233;DHT22;37438;55.674;13.074;2022-08-19T18:13:13;21.50;99.90
20233;DHT22;37438;55.674;13.074;2022-08-19T18:16:21;21.40;99.90
20233;DHT22;37438;55.674;13.074;2022-08-19T18:19:26;21.40;99.90
20233;DHT22;37438;55.674;13.074;2022-08-19T18:22:46;21.50;99.90
20233;DHT22;37438;55.674;13.074;2022-08-19T18:25:51;21.50;99.90
20233;DHT22;37438;55.674;13.074;2022-08-19T18:28:56;21.50;99.90
20233;DHT22;37438;55.674;13.074;2022-08-19T18:32:01;21.50;99.90
20233;DHT22;37438;55.674;13.074;2022-08-19T18:35:10;21.40;99.90
20233;DHT22;37438;55.674;13.074;2022-08-19T18:38:17;21.30;99.90
20233;DHT22;37438;55.674;13.074;2022-08-19T18:41:40;21.20;99.90
20233;DHT22;37438;55.674;13.074;2022-08-19T18:45:08;21.20;99.90
20233;DHT22;37438;55.674;13.074;2022-08-19T18:48:32;21.20;99.90
20233;DHT22;37438;55.674;13.074;2022-08-19T18:51:55;21.10;99.90
20233;DHT22;37438;55.674;13.074;2022-08-19T18:55:02;21.10;99.90
20233;DHT22;37438;55.674;13.074;2022-08-19T18:58:06;21.10;99.90
20233;DHT22;37438;55.674;13.074;2022-08-19T19:01:16;21.00;99.90
20233;DHT22;37438;55.674;13.074;2022-08-19T19:04:24;21.00;99.90
20233;DHT22;37438;55.674;13.074;2022-08-19T19:07:29;21.00;99.90
20233;DHT22;37438;55.674;13.074;2022-08-19T19:10:33;21.00;99.90
20233;DHT22;37438;55.674;13.074;2022-08-19T19:13:39;21.00;99.90
20233;DHT22;37438;55.674;13.074;2022-08-19T19:16:44;21.00;99.90
20233;DHT22;37438;55.674;13.074;2022-08-19T19:19:49;21.00;99.90
20233;DHT22;37438;55.674;13.074;2022-08-19T19:22:54;20.90;99.90
20233;DHT22;37438;55.674;13.074;2022-08-19T19:26:01;20.90;99.90
20233;DHT22;37438;55.674;13.074;2022-08-19T19:29:06;20.90;99.90
20233;DHT22;37438;55.674;13.074;2022-08-19T19:32:21;20.90;99.90
20233;DHT22;37438;55.674;13.074;2022-08-19T19:35:26;20.90;99.90
20233;DHT22;37438;55.674;13.074;2022-08-19T19:38:30;20.80;99.90
20233;DHT22;37438;55.674;13.074;2022-08-19T19:41:35;20.80;99.90